sensor_id;sensor_type;location;lat;lon;timestamp;pressure;altitude;pressure_sealevel;temperature;humidity
70103;BME280;57470;50.034;15.256;2023-06-10T00:02:20;99135.88;;;16.26;100.00
70103;BME280;57470;50.034;15.256;2023-06-10T00:04:45;99139.53;;;16.25;100.00
70103;BME280;57470;50.034;15.256;2023-06-10T00:07:11;99141.69;;;16.12;100.00
70103;BME280;57470;50.034;15.256;2023-06-10T00:09:38;99138.88;;;16.13;100.00
70103;BME280;57470;50.034;15.256;2023-06-10T00:12:04;99150.41;;;16.24;100.00
70103;BME280;57470;50.034;15.256;2023-06-10T00:14:30;99149.97;;;16.28;100.00
70103;BME280;57470;50.034;15.256;2023-06-10T00:16:55;99147.53;;;16.35;100.00
70103;BME280;57470;50.034;15.256;2023-06-10T00:19:22;99148.38;;;16.35;100.00
70103;BME280;57470;50.034;15.256;2023-06-10T00:21:51;99150.59;;;16.40;100.00
70103;BME280;57470;50.034;15.256;2023-06-10T00:24:17;99148.75;;;16.40;100.00
70103;BME280;57470;50.034;15.256;2023-06-10T00:26:43;99153.38;;;16.21;100.00
70103;BME280;57470;50.034;15.256;2023-06-10T00:29:08;99147.22;;;16.10;100.00
70103;BME280;57470;50.034;15.256;2023-06-10T00:31:35;99146.44;;;16.28;100.00
70103;BME280;57470;50.034;15.256;2023-06-10T00:34:01;99156.28;;;16.37;100.00
70103;BME280;57470;50.034;15.256;2023-06-10T00:36:27;99152.06;;;16.34;100.00
70103;BME280;57470;50.034;15.256;2023-06-10T00:38:52;99153.03;;;16.33;100.00
70103;BME280;57470;50.034;15.256;2023-06-10T00:41:18;99146.97;;;16.31;100.00
70103;BME280;57470;50.034;15.256;2023-06-10T00:43:43;99153.94;;;16.24;100.00
70103;BME280;57470;50.034;15.256;2023-06-10T00:46:10;99146.53;;;16.36;100.00
70103;BME280;57470;50.034;15.256;2023-06-10T00:48:37;99158.47;;;16.24;100.00
70103;BME280;57470;50.034;15.256;2023-06-10T00:51:05;99156.78;;;16.23;100.00
70103;BME280;57470;50.034;15.256;2023-06-10T00:53:30;99158.50;;;16.14;100.00
70103;BME280;57470;50.034;15.256;2023-06-10T00:55:56;99160.84;;;16.27;100.00
70103;BME280;57470;50.034;15.256;2023-06-10T00:58:23;99155.69;;;16.16;100.00
70103;BME280;57470;50.034;15.256;2023-06-10T01:00:48;99148.75;;;16.13;100.00
70103;BME280;57470;50.034;15.256;2023-06-10T01:03:15;99151.88;;;16.18;100.00
70103;BME280;57470;50.034;15.256;2023-06-10T01:05:42;99161.31;;;16.12;100.00
70103;BME280;57470;50.034;15.256;2023-06-10T01:10:50;99161.38;;;16.03;100.00
70103;BME280;57470;50.034;15.256;2023-06-10T01:13:17;99158.44;;;15.96;100.00
70103;BME280;57470;50.034;15.256;2023-06-10T01:15:43;99165.22;;;16.00;100.00
70103;BME280;57470;50.034;15.256;2023-06-10T01:18:10;99164.53;;;15.89;100.00
70103;BME280;57470;50.034;15.256;2023-06-10T01:20:41;99173.00;;;15.84;100.00
70103;BME280;57470;50.034;15.256;2023-06-10T01:23:09;99174.66;;;15.95;100.00
70103;BME280;57470;50.034;15.256;2023-06-10T01:25:46;99164.81;;;15.86;100.00
70103;BME280;57470;50.034;15.256;2023-06-10T01:28:17;99159.19;;;15.79;100.00
70103;BME280;57470;50.034;15.256;2023-06-10T01:31:03;99158.75;;;15.84;100.00
70103;BME280;57470;50.034;15.256;2023-06-10T01:33:36;99174.44;;;15.79;100.00
70103;BME280;57470;50.034;15.256;2023-06-10T01:36:03;99161.06;;;15.69;100.00
70103;BME280;57470;50.034;15.256;2023-06-10T01:38:33;99159.66;;;15.74;100.00
70103;BME280;57470;50.034;15.256;2023-06-10T01:41:01;99157.41;;;15.60;100.00
70103;BME280;57470;50.034;15.256;2023-06-10T01:43:28;99162.50;;;15.63;100.00
70103;BME280;57470;50.034;15.256;2023-06-10T01:45:53;99169.44;;;15.56;100.00
70103;BME280;57470;50.034;15.256;2023-06-10T01:48:19;99172.63;;;15.40;100.00
70103;BME280;57470;50.034;15.256;2023-06-10T01:50:44;99170.09;;;15.49;100.00
70103;BME280;57470;50.034;15.256;2023-06-10T01:53:10;99178.28;;;15.47;100.00
70103;BME280;57470;50.034;15.256;2023-06-10T01:55:36;99180.13;;;15.47;100.00
70103;BME280;57470;50.034;15.256;2023-06-10T01:58:01;99185.78;;;15.44;100.00
70103;BME280;57470;50.034;15.256;2023-06-10T02:00:27;99186.88;;;15.41;100.00
70103;BME280;57470;50.034;15.256;2023-06-10T02:02:53;99185.50;;;15.37;100.00
70103;BME280;57470;50.034;15.256;2023-06-10T02:05:18;99193.41;;;15.38;100.00
70103;BME280;57470;50.034;15.256;2023-06-10T02:07:44;99193.41;;;15.38;100.00
70103;BME280;57470;50.034;15.256;2023-06-10T02:10:10;99192.69;;;15.36;100.00
70103;BME280;57470;50.034;15.256;2023-06-10T02:12:37;99194.09;;;15.31;100.00
70103;BME280;57470;50.034;15.256;2023-06-10T02:15:04;99194.38;;;15.28;100.00
70103;BME280;57470;50.034;15.256;2023-06-10T02:17:30;99197.47;;;15.33;100.00
70103;BME280;57470;50.034;15.256;2023-06-10T02:19:58;99197.78;;;15.30;100.00
70103;BME280;57470;50.034;15.256;2023-06-10T02:22:26;99195.38;;;15.36;100.00
70103;BME280;57470;50.034;15.256;2023-06-10T02:24:52;99190.84;;;15.18;100.00
70103;BME280;57470;50.034;15.256;2023-06-10T02:27:18;99201.31;;;15.21;100.00
70103;BME280;57470;50.034;15.256;2023-06-10T02:29:45;99196.75;;;15.31;100.00
70103;BME280;57470;50.034;15.256;2023-06-10T02:32:12;99197.19;;;15.36;100.00
70103;BME280;57470;50.034;15.256;2023-06-10T02:34:39;99194.09;;;15.31;100.00
70103;BME280;57470;50.034;15.256;2023-06-10T02:37:09;99205.38;;;15.25;100.00
70103;BME280;57470;50.034;15.256;2023-06-10T02:39:36;99206.09;;;15.27;100.00
70103;BME280;57470;50.034;15.256;2023-06-10T02:42:03;99195.38;;;15.27;100.00
70103;BME280;57470;50.034;15.256;2023-06-10T02:44:31;99196.63;;;15.32;100.00
70103;BME280;57470;50.034;15.256;2023-06-10T02:46:58;99203.53;;;15.35;100.00
70103;BME280;57470;50.034;15.256;2023-06-10T02:49:25;99197.78;;;15.30;100.00
70103;BME280;57470;50.034;15.256;2023-06-10T02:51:55;99195.25;;;15.28;100.00
70103;BME280;57470;50.034;15.256;2023-06-10T02:54:23;99201.59;;;15.27;100.00
70103;BME280;57470;50.034;15.256;2023-06-10T02:56:52;99207.66;;;15.29;100.00
70103;BME280;57470;50.034;15.256;2023-06-10T02:59:19;99209.03;;;15.33;100.00
70103;BME280;57470;50.034;15.256;2023-06-10T03:01:46;99206.94;;;15.37;100.00
70103;BME280;57470;50.034;15.256;2023-06-10T03:04:12;99205.50;;;15.33;100.00
70103;BME280;57470;50.034;15.256;2023-06-10T03:06:40;99216.22;;;15.23;100.00
70103;BME280;57470;50.034;15.256;2023-06-10T03:09:08;99204.53;;;15.44;100.00
70103;BME280;57470;50.034;15.256;2023-06-10T03:11:33;99205.78;;;15.49;100.00
70103;BME280;57470;50.034;15.256;2023-06-10T03:13:59;99208.09;;;15.54;100.00
70103;BME280;57470;50.034;15.256;2023-06-10T03:16:24;99210.75;;;15.54;100.00
70103;BME280;57470;50.034;15.256;2023-06-10T03:18:52;99217.38;;;15.59;100.00
70103;BME280;57470;50.034;15.256;2023-06-10T03:21:18;99203.25;;;15.67;100.00
70103;BME280;57470;50.034;15.256;2023-06-10T03:23:44;99208.31;;;15.80;100.00
70103;BME280;57470;50.034;15.256;2023-06-10T03:26:11;99214.09;;;15.75;100.00
70103;BME280;57470;50.034;15.256;2023-06-10T03:28:37;99209.16;;;15.51;100.00
70103;BME280;57470;50.034;15.256;2023-06-10T03:31:03;99216.22;;;15.81;100.00
70103;BME280;57470;50.034;15.256;2023-06-10T03:33:28;99218.59;;;15.84;100.00
70103;BME280;57470;50.034;15.256;2023-06-10T03:35:53;99213.66;;;15.89;100.00
70103;BME280;57470;50.034;15.256;2023-06-10T03:38:19;99226.47;;;16.05;100.00
70103;BME280;57470;50.034;15.256;2023-06-10T03:40:44;99228.88;;;16.08;100.00
70103;BME280;57470;50.034;15.256;2023-06-10T03:43:10;99212.06;;;16.06;100.00
70103;BME280;57470;50.034;15.256;2023-06-10T03:45:35;99221.53;;;16.00;100.00
70103;BME280;57470;50.034;15.256;2023-06-10T03:48:01;99220.22;;;16.14;100.00
70103;BME280;57470;50.034;15.256;2023-06-10T03:50:28;99231.09;;;16.12;100.00
70103;BME280;57470;50.034;15.256;2023-06-10T03:52:54;99231.38;;;16.19;100.00
70103;BME280;57470;50.034;15.256;2023-06-10T03:55:19;99223.59;;;16.16;100.00
70103;BME280;57470;50.034;15.256;2023-06-10T03:57:47;99229.69;;;16.18;100.00
70103;BME280;57470;50.034;15.256;2023-06-10T04:00:13;99229.47;;;16.29;100.00
70103;BME280;57470;50.034;15.256;2023-06-10T04:02:40;99225.13;;;16.28;100.00
70103;BME280;57470;50.034;15.256;2023-06-10T04:05:15;99225.91;;;16.38;100.00
70103;BME280;57470;50.034;15.256;2023-06-10T04:07:40;99232.94;;;16.49;100.00
70103;BME280;57470;50.034;15.256;2023-06-10T04:10:08;99236.59;;;16.48;100.00
70103;BME280;57470;50.034;15.256;2023-06-10T04:12:34;99245.50;;;16.48;100.00
70103;BME280;57470;50.034;15.256;2023-06-10T04:14:59;99242.38;;;16.53;100.00
70103;BME280;57470;50.034;15.256;2023-06-10T04:17:25;99237.00;;;16.63;100.00
70103;BME280;57470;50.034;15.256;2023-06-10T04:19:51;99236.03;;;16.64;100.00
70103;BME280;57470;50.034;15.256;2023-06-10T04:22:17;99241.50;;;16.72;100.00
70103;BME280;57470;50.034;15.256;2023-06-10T04:24:43;99237.06;;;16.80;100.00
70103;BME280;57470;50.034;15.256;2023-06-10T04:27:08;99239.88;;;16.79;100.00
70103;BME280;57470;50.034;15.256;2023-06-10T04:29:34;99240.63;;;16.34;100.00
70103;BME280;57470;50.034;15.256;2023-06-10T04:31:59;99238.53;;;16.65;100.00
70103;BME280;57470;50.034;15.256;2023-06-10T04:34:27;99244.97;;;16.82;100.00
70103;BME280;57470;50.034;15.256;2023-06-10T04:36:53;99241.06;;;16.94;100.00
70103;BME280;57470;50.034;15.256;2023-06-10T04:39:19;99239.63;;;17.00;100.00
70103;BME280;57470;50.034;15.256;2023-06-10T04:41:45;99237.22;;;16.97;100.00
70103;BME280;57470;50.034;15.256;2023-06-10T04:44:11;99231.72;;;16.98;100.00
70103;BME280;57470;50.034;15.256;2023-06-10T04:46:36;99231.78;;;17.06;100.00
70103;BME280;57470;50.034;15.256;2023-06-10T04:49:02;99234.34;;;17.25;100.00
70103;BME280;57470;50.034;15.256;2023-06-10T04:51:28;99240.31;;;17.55;100.00
70103;BME280;57470;50.034;15.256;2023-06-10T04:53:53;99233.69;;;18.11;100.00
70103;BME280;57470;50.034;15.256;2023-06-10T04:56:19;99239.56;;;18.32;100.00
70103;BME280;57470;50.034;15.256;2023-06-10T04:58:45;99249.06;;;18.52;100.00
70103;BME280;57470;50.034;15.256;2023-06-10T05:01:10;99245.00;;;18.14;100.00
70103;BME280;57470;50.034;15.256;2023-06-10T05:03:36;99243.69;;;18.18;100.00
70103;BME280;57470;50.034;15.256;2023-06-10T05:06:01;99243.56;;;17.76;100.00
70103;BME280;57470;50.034;15.256;2023-06-10T05:08:26;99254.44;;;18.18;100.00
70103;BME280;57470;50.034;15.256;2023-06-10T05:10:52;99252.78;;;18.25;100.00
70103;BME280;57470;50.034;15.256;2023-06-10T05:13:17;99259.81;;;18.44;100.00
70103;BME280;57470;50.034;15.256;2023-06-10T05:15:43;99247.00;;;18.38;100.00
70103;BME280;57470;50.034;15.256;2023-06-10T05:18:10;99258.19;;;18.51;100.00
70103;BME280;57470;50.034;15.256;2023-06-10T05:20:37;99259.84;;;18.52;100.00
70103;BME280;57470;50.034;15.256;2023-06-10T05:23:03;99257.28;;;18.68;100.00
70103;BME280;57470;50.034;15.256;2023-06-10T05:25:30;99262.34;;;18.71;100.00
70103;BME280;57470;50.034;15.256;2023-06-10T05:27:56;99257.19;;;18.86;100.00
70103;BME280;57470;50.034;15.256;2023-06-10T05:30:21;99262.19;;;18.81;100.00
70103;BME280;57470;50.034;15.256;2023-06-10T05:32:48;99257.63;;;18.73;100.00
70103;BME280;57470;50.034;15.256;2023-06-10T05:35:13;99246.53;;;18.77;100.00
70103;BME280;57470;50.034;15.256;2023-06-10T05:37:38;99256.66;;;18.83;100.00
70103;BME280;57470;50.034;15.256;2023-06-10T05:40:04;99250.59;;;18.89;100.00
70103;BME280;57470;50.034;15.256;2023-06-10T05:42:30;99249.56;;;18.82;100.00
70103;BME280;57470;50.034;15.256;2023-06-10T05:44:55;99255.44;;;18.69;100.00
70103;BME280;57470;50.034;15.256;2023-06-10T05:47:21;99259.47;;;18.73;100.00
70103;BME280;57470;50.034;15.256;2023-06-10T05:49:46;99256.00;;;18.55;100.00
70103;BME280;57470;50.034;15.256;2023-06-10T05:52:13;99257.44;;;18.67;100.00
70103;BME280;57470;50.034;15.256;2023-06-10T05:54:38;99261.31;;;18.72;100.00
70103;BME280;57470;50.034;15.256;2023-06-10T05:57:04;99255.31;;;18.79;100.00
70103;BME280;57470;50.034;15.256;2023-06-10T05:59:31;99260.09;;;18.59;100.00
70103;BME280;57470;50.034;15.256;2023-06-10T06:01:56;99253.53;;;18.61;100.00
70103;BME280;57470;50.034;15.256;2023-06-10T06:04:21;99253.75;;;18.42;100.00
70103;BME280;57470;50.034;15.256;2023-06-10T06:06:47;99262.50;;;18.44;100.00
70103;BME280;57470;50.034;15.256;2023-06-10T06:09:12;99254.91;;;17.88;100.00
70103;BME280;57470;50.034;15.256;2023-06-10T06:11:38;99262.31;;;17.86;100.00
70103;BME280;57470;50.034;15.256;2023-06-10T06:14:03;99269.59;;;17.93;100.00
70103;BME280;57470;50.034;15.256;2023-06-10T06:16:29;99275.66;;;18.47;100.00
70103;BME280;57470;50.034;15.256;2023-06-10T06:18:54;99274.41;;;18.59;100.00
70103;BME280;57470;50.034;15.256;2023-06-10T06:21:22;99272.50;;;18.52;100.00
70103;BME280;57470;50.034;15.256;2023-06-10T06:23:47;99273.13;;;18.46;100.00
70103;BME280;57470;50.034;15.256;2023-06-10T06:26:13;99279.50;;;18.45;100.00
70103;BME280;57470;50.034;15.256;2023-06-10T06:28:38;99291.16;;;18.53;100.00
70103;BME280;57470;50.034;15.256;2023-06-10T06:31:04;99285.22;;;18.67;100.00
70103;BME280;57470;50.034;15.256;2023-06-10T06:33:29;99291.34;;;18.78;100.00
70103;BME280;57470;50.034;15.256;2023-06-10T06:35:55;99290.72;;;18.06;100.00
70103;BME280;57470;50.034;15.256;2023-06-10T06:38:20;99289.97;;;18.22;100.00
70103;BME280;57470;50.034;15.256;2023-06-10T06:40:46;99295.91;;;18.51;100.00
70103;BME280;57470;50.034;15.256;2023-06-10T06:43:11;99291.63;;;18.41;100.00
70103;BME280;57470;50.034;15.256;2023-06-10T06:45:36;99285.47;;;18.56;100.00
70103;BME280;57470;50.034;15.256;2023-06-10T06:48:02;99293.84;;;18.53;100.00
70103;BME280;57470;50.034;15.256;2023-06-10T06:50:27;99298.66;;;18.59;100.00
70103;BME280;57470;50.034;15.256;2023-06-10T06:52:53;99292.81;;;18.72;100.00
70103;BME280;57470;50.034;15.256;2023-06-10T06:55:18;99300.94;;;18.80;100.00
70103;BME280;57470;50.034;15.256;2023-06-10T06:57:43;99294.81;;;18.70;100.00
70103;BME280;57470;50.034;15.256;2023-06-10T07:00:09;99305.72;;;18.94;100.00
70103;BME280;57470;50.034;15.256;2023-06-10T07:02:35;99302.44;;;18.74;100.00
70103;BME280;57470;50.034;15.256;2023-06-10T07:05:01;99311.66;;;19.06;100.00
70103;BME280;57470;50.034;15.256;2023-06-10T07:07:26;99299.38;;;19.11;100.00
70103;BME280;57470;50.034;15.256;2023-06-10T07:09:52;99298.06;;;19.24;100.00
70103;BME280;57470;50.034;15.256;2023-06-10T07:12:18;99302.97;;;19.28;100.00
70103;BME280;57470;50.034;15.256;2023-06-10T07:14:44;99306.38;;;19.38;100.00
70103;BME280;57470;50.034;15.256;2023-06-10T07:17:09;99301.31;;;19.43;100.00
70103;BME280;57470;50.034;15.256;2023-06-10T07:19:35;99300.97;;;19.30;100.00
70103;BME280;57470;50.034;15.256;2023-06-10T07:22:00;99304.34;;;19.32;100.00
70103;BME280;57470;50.034;15.256;2023-06-10T07:24:25;99304.97;;;19.26;100.00
70103;BME280;57470;50.034;15.256;2023-06-10T07:26:51;99292.53;;;19.33;100.00
70103;BME280;57470;50.034;15.256;2023-06-10T07:29:16;99303.66;;;19.30;100.00
70103;BME280;57470;50.034;15.256;2023-06-10T07:31:42;99305.53;;;19.38;100.00
70103;BME280;57470;50.034;15.256;2023-06-10T07:34:07;99311.09;;;19.44;100.00
70103;BME280;57470;50.034;15.256;2023-06-10T07:36:33;99315.94;;;19.25;100.00
70103;BME280;57470;50.034;15.256;2023-06-10T07:38:58;99321.03;;;19.44;100.00
70103;BME280;57470;50.034;15.256;2023-06-10T07:41:24;99319.56;;;19.07;100.00
70103;BME280;57470;50.034;15.256;2023-06-10T07:43:53;99317.94;;;18.81;100.00
70103;BME280;57470;50.034;15.256;2023-06-10T07:46:23;99319.78;;;19.14;100.00
70103;BME280;57470;50.034;15.256;2023-06-10T07:48:49;99320.25;;;19.09;100.00
70103;BME280;57470;50.034;15.256;2023-06-10T07:51:15;99320.31;;;19.26;100.00
70103;BME280;57470;50.034;15.256;2023-06-10T07:53:41;99327.69;;;19.50;100.00
70103;BME280;57470;50.034;15.256;2023-06-10T07:56:06;99330.19;;;19.51;100.00
70103;BME280;57470;50.034;15.256;2023-06-10T07:58:32;99328.81;;;19.47;100.00
70103;BME280;57470;50.034;15.256;2023-06-10T08:00:57;99329.97;;;19.36;100.00
70103;BME280;57470;50.034;15.256;2023-06-10T08:03:22;99339.59;;;19.39;100.00
70103;BME280;57470;50.034;15.256;2023-06-10T08:05:48;99335.66;;;19.25;100.00
70103;BME280;57470;50.034;15.256;2023-06-10T08:08:13;99331.63;;;19.29;100.00
70103;BME280;57470;50.034;15.256;2023-06-10T08:10:39;99327.16;;;19.54;100.00
70103;BME280;57470;50.034;15.256;2023-06-10T08:13:04;99330.13;;;19.43;100.00
70103;BME280;57470;50.034;15.256;2023-06-10T08:15:29;99329.97;;;19.44;100.00
70103;BME280;57470;50.034;15.256;2023-06-10T08:17:55;99332.25;;;19.57;100.00
70103;BME280;57470;50.034;15.256;2023-06-10T08:20:21;99327.50;;;19.51;100.00
70103;BME280;57470;50.034;15.256;2023-06-10T08:22:47;99327.94;;;19.38;100.00
70103;BME280;57470;50.034;15.256;2023-06-10T08:25:12;99332.69;;;19.44;100.00
70103;BME280;57470;50.034;15.256;2023-06-10T08:27:38;99329.72;;;19.72;100.00
70103;BME280;57470;50.034;15.256;2023-06-10T08:30:03;99329.03;;;19.78;100.00
70103;BME280;57470;50.034;15.256;2023-06-10T08:32:29;99344.22;;;19.63;100.00
70103;BME280;57470;50.034;15.256;2023-06-10T08:34:55;99338.06;;;19.44;100.00
70103;BME280;57470;50.034;15.256;2023-06-10T08:37:20;99340.88;;;19.77;100.00
70103;BME280;57470;50.034;15.256;2023-06-10T08:39:46;99344.22;;;19.71;100.00
70103;BME280;57470;50.034;15.256;2023-06-10T08:42:22;99339.66;;;19.63;100.00
70103;BME280;57470;50.034;15.256;2023-06-10T08:44:53;99344.91;;;19.65;100.00
70103;BME280;57470;50.034;15.256;2023-06-10T08:47:19;99343.53;;;19.61;100.00
70103;BME280;57470;50.034;15.256;2023-06-10T08:49:47;99342.53;;;19.62;100.00
70103;BME280;57470;50.034;15.256;2023-06-10T08:52:17;99353.03;;;20.05;100.00
70103;BME280;57470;50.034;15.256;2023-06-10T08:55:00;99354.41;;;20.09;100.00
70103;BME280;57470;50.034;15.256;2023-06-10T08:57:28;99351.84;;;20.08;100.00
70103;BME280;57470;50.034;15.256;2023-06-10T08:59:56;99353.19;;;19.79;100.00
70103;BME280;57470;50.034;15.256;2023-06-10T09:02:22;99354.19;;;19.86;100.00
70103;BME280;57470;50.034;15.256;2023-06-10T09:04:49;99350.63;;;19.78;100.00
70103;BME280;57470;50.034;15.256;2023-06-10T09:07:18;99348.63;;;19.80;100.00
70103;BME280;57470;50.034;15.256;2023-06-10T09:09:44;99354.03;;;19.80;100.00
70103;BME280;57470;50.034;15.256;2023-06-10T09:12:13;99354.06;;;20.12;100.00
70103;BME280;57470;50.034;15.256;2023-06-10T09:14:54;99353.38;;;20.10;100.00
70103;BME280;57470;50.034;15.256;2023-06-10T09:17:20;99354.53;;;20.24;100.00
70103;BME280;57470;50.034;15.256;2023-06-10T09:19:46;99346.47;;;20.56;100.00
70103;BME280;57470;50.034;15.256;2023-06-10T09:22:11;99339.50;;;20.70;100.00
70103;BME280;57470;50.034;15.256;2023-06-10T09:24:37;99346.25;;;21.13;100.00
70103;BME280;57470;50.034;15.256;2023-06-10T09:29:34;99350.81;;;21.60;100.00
70103;BME280;57470;50.034;15.256;2023-06-10T09:32:10;99349.00;;;21.52;99.82
70103;BME280;57470;50.034;15.256;2023-06-10T09:34:36;99344.00;;;21.33;98.74
70103;BME280;57470;50.034;15.256;2023-06-10T09:37:01;99344.41;;;21.53;99.77
70103;BME280;57470;50.034;15.256;2023-06-10T09:39:27;99339.69;;;21.78;99.85
70103;BME280;57470;50.034;15.256;2023-06-10T09:41:52;99341.72;;;22.06;98.59
70103;BME280;57470;50.034;15.256;2023-06-10T09:44:19;99338.34;;;22.04;96.63
70103;BME280;57470;50.034;15.256;2023-06-10T09:46:49;99338.34;;;22.04;98.75
70103;BME280;57470;50.034;15.256;2023-06-10T09:49:16;99336.69;;;21.95;97.83
70103;BME280;57470;50.034;15.256;2023-06-10T09:51:51;99343.72;;;21.82;100.00
70103;BME280;57470;50.034;15.256;2023-06-10T09:54:17;99345.16;;;22.38;97.74
70103;BME280;57470;50.034;15.256;2023-06-10T09:56:46;99339.69;;;22.61;96.85
70103;BME280;57470;50.034;15.256;2023-06-10T09:59:12;99334.78;;;22.79;92.66
70103;BME280;57470;50.034;15.256;2023-06-10T10:01:37;99334.66;;;22.72;91.98
70103;BME280;57470;50.034;15.256;2023-06-10T10:04:03;99326.81;;;22.92;89.84
70103;BME280;57470;50.034;15.256;2023-06-10T10:06:30;99332.59;;;23.33;87.04
70103;BME280;57470;50.034;15.256;2023-06-10T10:08:55;99330.81;;;23.26;84.86
70103;BME280;57470;50.034;15.256;2023-06-10T10:11:22;99328.00;;;23.19;86.08
70103;BME280;57470;50.034;15.256;2023-06-10T10:13:50;99313.88;;;23.24;84.93
70103;BME280;57470;50.034;15.256;2023-06-10T10:16:36;99321.44;;;23.43;86.77
70103;BME280;57470;50.034;15.256;2023-06-10T10:19:18;99320.84;;;23.47;82.39
70103;BME280;57470;50.034;15.256;2023-06-10T10:22:08;99316.94;;;23.50;81.96
70103;BME280;57470;50.034;15.256;2023-06-10T10:24:38;99318.28;;;23.10;84.57
70103;BME280;57470;50.034;15.256;2023-06-10T10:27:12;99313.25;;;22.77;84.83
70103;BME280;57470;50.034;15.256;2023-06-10T10:29:39;99311.28;;;23.01;83.84
70103;BME280;57470;50.034;15.256;2023-06-10T10:32:07;99317.41;;;23.39;83.59
70103;BME280;57470;50.034;15.256;2023-06-10T10:34:36;99312.56;;;23.19;80.43
70103;BME280;57470;50.034;15.256;2023-06-10T10:37:02;99307.25;;;23.62;79.32
70103;BME280;57470;50.034;15.256;2023-06-10T10:39:28;99304.03;;;23.52;77.04
70103;BME280;57470;50.034;15.256;2023-06-10T10:41:55;99314.34;;;23.63;76.69
70103;BME280;57470;50.034;15.256;2023-06-10T10:44:22;99302.81;;;23.40;76.85
70103;BME280;57470;50.034;15.256;2023-06-10T10:46:50;99311.50;;;23.71;76.55
70103;BME280;57470;50.034;15.256;2023-06-10T10:49:17;99300.41;;;23.66;77.00
70103;BME280;57470;50.034;15.256;2023-06-10T10:52:02;99302.44;;;23.43;75.10
70103;BME280;57470;50.034;15.256;2023-06-10T10:54:36;99302.75;;;23.69;76.34
70103;BME280;57470;50.034;15.256;2023-06-10T10:57:16;99292.06;;;23.89;79.12
70103;BME280;57470;50.034;15.256;2023-06-10T10:59:55;99293.97;;;24.16;79.99
70103;BME280;57470;50.034;15.256;2023-06-10T11:02:40;99298.78;;;24.14;76.47
70103;BME280;57470;50.034;15.256;2023-06-10T11:05:09;99294.44;;;23.99;75.83
70103;BME280;57470;50.034;15.256;2023-06-10T11:07:35;99291.63;;;23.85;74.88
70103;BME280;57470;50.034;15.256;2023-06-10T11:10:12;99289.97;;;24.12;76.18
70103;BME280;57470;50.034;15.256;2023-06-10T11:15:13;99280.00;;;24.41;76.32
70103;BME280;57470;50.034;15.256;2023-06-10T11:18:08;99278.47;;;24.32;72.82
70103;BME280;57470;50.034;15.256;2023-06-10T11:31:28;99282.22;;;24.65;75.53
70103;BME280;57470;50.034;15.256;2023-06-10T11:34:02;99283.19;;;24.51;74.01
70103;BME280;57470;50.034;15.256;2023-06-10T11:36:28;99278.22;;;24.61;74.08
70103;BME280;57470;50.034;15.256;2023-06-10T11:38:58;99269.28;;;24.67;70.87
70103;BME280;57470;50.034;15.256;2023-06-10T11:41:25;99275.13;;;24.98;72.52
70103;BME280;57470;50.034;15.256;2023-06-10T11:43:52;99252.69;;;24.96;71.44
70103;BME280;57470;50.034;15.256;2023-06-10T11:46:18;99262.44;;;25.19;71.62
70103;BME280;57470;50.034;15.256;2023-06-10T11:48:56;99267.03;;;25.18;70.74
70103;BME280;57470;50.034;15.256;2023-06-10T11:51:25;99257.75;;;24.99;70.07
70103;BME280;57470;50.034;15.256;2023-06-10T11:53:50;99265.34;;;25.11;71.40
70103;BME280;57470;50.034;15.256;2023-06-10T11:58:52;99244.91;;;24.87;70.75
70103;BME280;57470;50.034;15.256;2023-06-10T12:01:22;99265.72;;;24.32;71.38
70103;BME280;57470;50.034;15.256;2023-06-10T12:03:50;99256.44;;;24.26;69.91
70103;BME280;57470;50.034;15.256;2023-06-10T12:06:21;99242.78;;;24.82;70.35
70103;BME280;57470;50.034;15.256;2023-06-10T12:08:46;99254.91;;;24.80;68.01
70103;BME280;57470;50.034;15.256;2023-06-10T12:11:12;99251.56;;;24.78;69.07
70103;BME280;57470;50.034;15.256;2023-06-10T12:13:45;99252.69;;;24.96;68.24
70103;BME280;57470;50.034;15.256;2023-06-10T12:16:13;99255.28;;;25.04;67.01
70103;BME280;57470;50.034;15.256;2023-06-10T12:18:38;99250.59;;;24.92;67.56
70103;BME280;57470;50.034;15.256;2023-06-10T12:21:18;99253.47;;;24.84;67.07
70103;BME280;57470;50.034;15.256;2023-06-10T12:24:06;99256.72;;;25.07;66.69
70103;BME280;57470;50.034;15.256;2023-06-10T12:26:42;99246.97;;;24.78;68.28
70103;BME280;57470;50.034;15.256;2023-06-10T12:29:23;99249.38;;;25.01;66.44
70103;BME280;57470;50.034;15.256;2023-06-10T12:31:58;99238.59;;;25.27;66.21
70103;BME280;57470;50.034;15.256;2023-06-10T12:34:35;99220.38;;;25.34;66.04
70103;BME280;57470;50.034;15.256;2023-06-10T12:37:02;99248.25;;;25.30;64.44
70103;BME280;57470;50.034;15.256;2023-06-10T12:39:29;99234.81;;;25.22;64.59
70103;BME280;57470;50.034;15.256;2023-06-10T12:41:55;99226.97;;;25.66;64.96
70103;BME280;57470;50.034;15.256;2023-06-10T12:44:33;99232.22;;;25.68;64.51
70103;BME280;57470;50.034;15.256;2023-06-10T12:47:00;99227.31;;;25.50;63.81
70103;BME280;57470;50.034;15.256;2023-06-10T12:49:26;99228.66;;;26.00;66.17
70103;BME280;57470;50.034;15.256;2023-06-10T12:51:51;99233.19;;;25.54;65.26
70103;BME280;57470;50.034;15.256;2023-06-10T12:54:17;99241.09;;;25.29;66.22
70103;BME280;57470;50.034;15.256;2023-06-10T12:56:43;99238.97;;;25.11;66.28
70103;BME280;57470;50.034;15.256;2023-06-10T12:59:08;99233.59;;;25.37;68.03
70103;BME280;57470;50.034;15.256;2023-06-10T13:01:33;99221.94;;;25.96;66.97
70103;BME280;57470;50.034;15.256;2023-06-10T13:03:59;99227.41;;;25.83;64.01
70103;BME280;57470;50.034;15.256;2023-06-10T13:06:25;99228.00;;;25.78;66.83